Time;durP1;ratioP1;P1;durP2;ratioP2;P2;SDS_P1;SDS_P2;PMS_P1;PMS_P2;Temp;Humidity;BMP_temperature;BMP_pressure;BME280_temperature;BME280_humidity;BME280_pressure;Samples;Min_cycle;Max_cycle;Signal;HPM_P1;HPM_P2
2023/12/23 00:00:20;;;;;;;;;;;;;;;7.97;77.09;99887.78;5043609;28;19932;-84
2023/12/23 00:02:46;;;;;;;;;;;;;;;7.95;77.88;99892.13;5038737;28;19925;-83
2023/12/23 00:05:13;;;;;;;;;;;;;;;7.97;77.72;99887.78;5041665;28;19935;-82
2023/12/23 00:07:40;;;;;;;;;;;;;;;7.82;78.92;99909.72;5040200;28;19925;-83
2023/12/23 00:10:07;;;;;;;;;;;;;;;7.80;79.22;99901.03;5043416;28;19931;-85
2023/12/23 00:12:34;;;;;;;;;;;;;;;7.77;79.24;99890.63;5040666;28;19932;-84
2023/12/23 00:15:01;;;;;;;;;;;;;;;7.75;79.39;99897.59;5044094;28;19945;-85
2023/12/23 00:17:27;;;;;;;;;;;;;;;7.90;77.99;99904.41;5043476;28;20426;-81
2023/12/23 00:19:56;;;;;;;;;;;;;;;7.87;77.96;99896.63;5042849;28;19960;-83
2023/12/23 00:22:23;;;;;;;;;;;;;;;7.89;77.73;99902.69;5045467;28;19929;-83
2023/12/23 00:24:50;;;;;;;;;;;;;;;8.03;76.39;99903.38;5047840;28;19948;-82
2023/12/23 00:27:16;;;;;;;;;;;;;;;7.84;77.69;99914.03;5045453;28;19932;-84
2023/12/23 00:29:43;;;;;;;;;;;;;;;7.92;77.51;99916.59;5039425;28;19925;-82
2023/12/23 00:32:10;;;;;;;;;;;;;;;7.83;78.28;99919.28;5046947;28;19933;-86
2023/12/23 00:34:36;;;;;;;;;;;;;;;7.78;78.69;99926.34;5044176;28;19978;-83
2023/12/23 00:37:03;;;;;;;;;;;;;;;7.74;79.10;99916.81;5045011;28;19994;-86
2023/12/23 00:39:30;;;;;;;;;;;;;;;7.72;79.01;99926.38;5042687;28;19933;-81
2023/12/23 00:41:57;;;;;;;;;;;;;;;7.73;79.01;99935.97;5044580;28;19969;-83
2023/12/23 00:44:23;;;;;;;;;;;;;;;7.78;78.57;99924.56;5042129;28;19925;-83
2023/12/23 00:46:50;;;;;;;;;;;;;;;7.77;78.59;99921.97;5045135;28;19925;-83
2023/12/23 00:49:17;;;;;;;;;;;;;;;7.83;78.07;99929.75;5050079;28;19925;-85
2023/12/23 00:51:43;;;;;;;;;;;;;;;7.80;78.30;99938.47;5047302;28;20019;-84
2023/12/23 00:54:10;;;;;;;;;;;;;;;7.91;77.27;99951.41;5049662;28;19925;-81
2023/12/23 00:56:37;;;;;;;;;;;;;;;7.96;77.21;99954.81;5047349;28;19932;-84
2023/12/23 00:59:04;;;;;;;;;;;;;;;8.01;76.67;99960.03;5046839;28;19929;-82
2023/12/23 01:01:30;;;;;;;;;;;;;;;8.06;76.15;99959.97;5046337;28;19934;-84
2023/12/23 01:03:57;;;;;;;;;;;;;;;7.89;77.67;99947.09;5044356;28;19931;-84
2023/12/23 01:06:24;;;;;;;;;;;;;;;8.03;76.61;99957.38;5045159;28;20018;-82
2023/12/23 01:08:50;;;;;;;;;;;;;;;7.96;76.90;99965.28;5045918;28;19925;-84
2023/12/23 01:11:17;;;;;;;;;;;;;;;8.07;75.82;99978.22;5043617;28;20027;-84
2023/12/23 01:13:44;;;;;;;;;;;;;;;8.09;75.84;99970.38;5044222;28;19932;-82
2023/12/23 01:16:11;;;;;;;;;;;;;;;8.10;75.78;99974.72;5047790;28;19925;-82
2023/12/23 01:18:38;;;;;;;;;;;;;;;8.17;74.88;99979.84;5046416;28;19925;-82
2023/12/23 01:21:04;;;;;;;;;;;;;;;8.20;74.67;99973.72;5043455;28;19935;-82
2023/12/23 01:23:31;;;;;;;;;;;;;;;8.11;75.13;99979.94;5044562;28;19925;-84
2023/12/23 01:25:58;;;;;;;;;;;;;;;8.20;74.78;99978.94;5043486;28;19932;-82
2023/12/23 01:28:24;;;;;;;;;;;;;;;8.07;76.23;99970.41;5038096;28;19932;-82
2023/12/23 01:30:51;;;;;;;;;;;;;;;7.97;76.29;99966.16;5044696;28;19932;-82
2023/12/23 01:33:18;;;;;;;;;;;;;;;8.04;75.49;99967.81;5048298;28;19925;-82
2023/12/23 01:35:45;;;;;;;;;;;;;;;7.99;75.46;99965.28;5047017;28;19933;-82
2023/12/23 01:38:11;;;;;;;;;;;;;;;7.98;75.50;99984.44;5045829;28;19944;-82
2023/12/23 01:40:38;;;;;;;;;;;;;;;8.10;74.44;99982.56;5042985;28;19982;-83
2023/12/23 01:43:05;;;;;;;;;;;;;;;8.15;73.82;99981.63;5023922;28;19981;-81
2023/12/23 01:45:32;;;;;;;;;;;;;;;8.03;74.75;99979.16;5040294;28;19925;-82
2023/12/23 01:48:01;;;;;;;;;;;;;;;8.16;73.21;99972.88;5041482;28;19960;-82
2023/12/23 01:50:29;;;;;;;;;;;;;;;8.13;73.55;99974.69;5043828;28;19925;-82
2023/12/23 01:52:56;;;;;;;;;;;;;;;8.00;74.29;99971.34;5042981;28;19965;-82
2023/12/23 01:55:23;;;;;;;;;;;;;;;8.12;73.40;99988.63;5036718;28;19931;-82
2023/12/23 01:57:50;;;;;;;;;;;;;;;7.99;74.11;99980.94;5026175;28;19935;-87
2023/12/23 02:00:17;;;;;;;;;;;;;;;8.06;73.47;99989.56;5030931;28;20717;-83
2023/12/23 02:02:45;;;;;;;;;;;;;;;8.04;73.56;99990.47;5042182;28;19979;-81
2023/12/23 02:05:11;;;;;;;;;;;;;;;8.06;73.42;99986.94;5036584;28;19939;-84
2023/12/23 02:07:38;;;;;;;;;;;;;;;7.98;73.83;100002.72;5042105;28;19932;-86
2023/12/23 02:10:05;;;;;;;;;;;;;;;7.90;74.60;100001.94;5043208;28;19994;-82
2023/12/23 02:12:51;;;;;;;;;;;;;;;7.97;74.32;100011.44;5045043;28;19932;-84
2023/12/23 02:15:37;;;;;;;;;;;;;;;7.99;73.97;100007.09;5040157;28;19937;-83
2023/12/23 02:18:03;;;;;;;;;;;;;;;7.93;74.54;100009.75;5042776;28;19928;-82
2023/12/23 02:20:30;;;;;;;;;;;;;;;8.12;73.12;99993.84;5045429;28;19943;-83
2023/12/23 02:22:57;;;;;;;;;;;;;;;8.05;73.59;99986.97;5039809;28;19925;-82
2023/12/23 02:25:24;;;;;;;;;;;;;;;8.00;73.83;99997.47;5038593;28;19929;-83
2023/12/23 02:27:52;;;;;;;;;;;;;;;7.98;73.82;100002.72;5044111;28;19924;-82
2023/12/23 02:30:19;;;;;;;;;;;;;;;7.93;74.47;99994.06;5044912;28;19940;-85
2023/12/23 02:32:46;;;;;;;;;;;;;;;7.94;74.73;100018.47;5042962;28;19925;-83
2023/12/23 02:35:13;;;;;;;;;;;;;;;7.91;75.30;100018.50;5041946;28;20023;-82
2023/12/23 02:37:41;;;;;;;;;;;;;;;7.76;76.83;100014.28;5020577;28;19925;-82
2023/12/23 02:40:08;;;;;;;;;;;;;;;7.64;77.60;100015.28;5046885;28;19925;-81
2023/12/23 02:42:35;;;;;;;;;;;;;;;7.68;77.13;100010.91;5046218;28;19932;-82
2023/12/23 02:45:03;;;;;;;;;;;;;;;7.74;76.61;100000.38;5041814;28;19925;-84
2023/12/23 02:47:29;;;;;;;;;;;;;;;7.72;76.46;100002.13;5041893;28;19925;-85
2023/12/23 02:49:56;;;;;;;;;;;;;;;7.70;76.61;100001.28;5043788;28;20071;-87
2023/12/23 02:52:23;;;;;;;;;;;;;;;7.95;74.59;99984.47;5040588;28;19940;-83
2023/12/23 02:54:49;;;;;;;;;;;;;;;7.91;74.77;100003.69;5039105;28;19925;-82
2023/12/23 02:57:16;;;;;;;;;;;;;;;7.93;74.32;100001.03;5043760;28;19933;-89
2023/12/23 02:59:43;;;;;;;;;;;;;;;7.93;74.44;99995.81;5038592;28;19925;-82
2023/12/23 03:02:09;;;;;;;;;;;;;;;7.94;74.26;100023.69;5042656;28;19925;-83
2023/12/23 03:04:36;;;;;;;;;;;;;;;8.01;73.66;100005.31;5038743;28;19952;-85
2023/12/23 03:07:03;;;;;;;;;;;;;;;8.01;73.90;100005.31;5043361;28;19932;-85
2023/12/23 03:09:30;;;;;;;;;;;;;;;8.12;72.95;100002.53;5044377;28;19933;-85
2023/12/23 03:11:57;;;;;;;;;;;;;;;8.07;73.26;100003.50;5041423;28;20016;-82
2023/12/23 03:14:24;;;;;;;;;;;;;;;8.01;73.53;99994.00;5043342;28;19925;-83
2023/12/23 03:16:50;;;;;;;;;;;;;;;7.98;73.92;99996.63;5043461;28;19925;-82
2023/12/23 03:19:17;;;;;;;;;;;;;;;7.96;74.15;100012.31;5038982;28;20023;-82
2023/12/23 03:21:44;;;;;;;;;;;;;;;7.95;74.49;100021.06;5042212;28;19924;-86
2023/12/23 03:24:11;;;;;;;;;;;;;;;7.87;75.67;100004.59;5042579;28;19931;-82
2023/12/23 03:26:38;;;;;;;;;;;;;;;7.74;77.14;99990.78;5038002;28;19932;-82
2023/12/23 03:29:05;;;;;;;;;;;;;;;7.63;78.21;99992.63;5040534;28;19929;-83
2023/12/23 03:31:32;;;;;;;;;;;;;;;7.56;78.68;99997.09;5042806;28;19932;-83
2023/12/23 03:33:59;;;;;;;;;;;;;;;7.55;78.89;99999.72;5043020;28;20000;-82
2023/12/23 03:36:27;;;;;;;;;;;;;;;7.52;79.23;99986.66;5040482;28;19968;-84
2023/12/23 03:38:55;;;;;;;;;;;;;;;7.47;79.26;99999.75;5044528;28;19929;-82
2023/12/23 03:41:22;;;;;;;;;;;;;;;7.48;78.88;99991.91;5044635;28;19925;-83
2023/12/23 03:43:49;;;;;;;;;;;;;;;7.55;78.25;100000.56;5044461;28;19995;-82
2023/12/23 03:46:19;;;;;;;;;;;;;;;7.57;78.26;99990.97;5042794;28;19929;-82
2023/12/23 03:48:47;;;;;;;;;;;;;;;7.54;78.29;99997.97;5044369;28;19935;-83
2023/12/23 03:51:13;;;;;;;;;;;;;;;7.66;77.29;99997.84;5042219;28;20350;-88
2023/12/23 03:53:40;;;;;;;;;;;;;;;7.56;78.13;99986.63;5041938;28;19933;-81
2023/12/23 03:56:07;;;;;;;;;;;;;;;7.60;77.84;99983.13;5042423;28;19925;-82
2023/12/23 03:58:33;;;;;;;;;;;;;;;7.68;77.13;99976.94;5040810;28;19925;-82
2023/12/23 04:01:00;;;;;;;;;;;;;;;7.58;77.82;99978.78;5043496;28;19979;-83
2023/12/23 04:03:27;;;;;;;;;;;;;;;7.61;77.77;99987.44;5043221;28;19933;-82
2023/12/23 04:05:53;;;;;;;;;;;;;;;7.59;78.43;99980.50;5048039;28;20028;-82
2023/12/23 04:08:20;;;;;;;;;;;;;;;7.70;76.90;99972.56;5045920;28;19931;-82
2023/12/23 04:10:48;;;;;;;;;;;;;;;7.66;77.29;99951.72;5046611;28;19940;-84
2023/12/23 04:13:16;;;;;;;;;;;;;;;7.71;76.69;99950.78;5043729;28;19925;-85
2023/12/23 04:15:43;;;;;;;;;;;;;;;7.85;75.89;99956.72;5043529;28;19955;-82
2023/12/23 04:18:10;;;;;;;;;;;;;;;7.84;75.46;99961.06;5041297;28;19975;-82
2023/12/23 04:20:37;;;;;;;;;;;;;;;7.82;75.64;99961.97;5044381;28;20403;-83
2023/12/23 04:23:03;;;;;;;;;;;;;;;7.76;75.98;99951.59;5047105;28;19931;-84
2023/12/23 04:25:30;;;;;;;;;;;;;;;7.80;75.46;99959.38;5041722;28;19933;-86
2023/12/23 04:27:57;;;;;;;;;;;;;;;7.92;74.37;99937.47;5047806;28;19933;-83
2023/12/23 04:30:23;;;;;;;;;;;;;;;7.89;74.59;99937.50;5045989;28;20020;-83
2023/12/23 04:32:50;;;;;;;;;;;;;;;7.85;74.84;99943.66;5046248;28;19929;-85
2023/12/23 04:35:18;;;;;;;;;;;;;;;7.81;75.06;99947.19;5036541;28;19931;-84
2023/12/23 04:37:45;;;;;;;;;;;;;;;7.87;74.69;99928.81;5045206;28;19925;-82
2023/12/23 04:40:11;;;;;;;;;;;;;;;7.91;73.91;99933.13;5044486;28;19932;-88
2023/12/23 04:42:38;;;;;;;;;;;;;;;7.83;74.52;99946.31;5045537;28;19932;-84
2023/12/23 04:45:06;;;;;;;;;;;;;;;8.03;73.02;99942.56;5047735;28;19925;-82
2023/12/23 04:47:33;;;;;;;;;;;;;;;7.90;74.18;99934.00;5044510;28;19939;-83
2023/12/23 04:50:00;;;;;;;;;;;;;;;7.97;73.66;99940.88;5040020;28;19925;-85
2023/12/23 04:52:26;;;;;;;;;;;;;;;7.93;73.97;99960.09;5042141;28;19933;-82
2023/12/23 04:54:53;;;;;;;;;;;;;;;7.95;73.88;99962.69;5043978;28;19925;-81
2023/12/23 04:57:20;;;;;;;;;;;;;;;7.97;73.92;99953.09;5043644;28;19924;-84
2023/12/23 04:59:46;;;;;;;;;;;;;;;7.98;73.73;99950.47;5042283;28;19936;-83
2023/12/23 05:02:13;;;;;;;;;;;;;;;8.07;73.26;99957.31;5046298;28;19924;-85
2023/12/23 05:04:42;;;;;;;;;;;;;;;7.94;74.31;99945.31;5054383;28;19932;-85
2023/12/23 05:07:09;;;;;;;;;;;;;;;7.92;74.21;99932.25;5046842;28;19931;-82
2023/12/23 05:09:36;;;;;;;;;;;;;;;7.97;73.78;99940.03;5056269;28;19935;-83
2023/12/23 05:12:03;;;;;;;;;;;;;;;7.96;73.82;99944.38;5046983;28;19931;-88
2023/12/23 05:14:30;;;;;;;;;;;;;;;8.02;73.43;99922.53;5048666;28;19932;-84
2023/12/23 05:16:57;;;;;;;;;;;;;;;7.93;73.88;99913.06;5041162;28;19971;-84
2023/12/23 05:19:24;;;;;;;;;;;;;;;8.03;73.21;99918.19;5046620;28;19924;-84
2023/12/23 05:21:51;;;;;;;;;;;;;;;7.87;74.60;99921.00;5047744;28;19925;-82
2023/12/23 05:24:17;;;;;;;;;;;;;;;7.98;73.28;99911.28;5048500;28;19933;-89
2023/12/23 05:26:44;;;;;;;;;;;;;;;8.06;72.55;99907.69;5047785;28;19925;-86
2023/12/23 05:29:11;;;;;;;;;;;;;;;7.96;73.41;99915.63;5044983;28;20004;-84
2023/12/23 05:31:38;;;;;;;;;;;;;;;7.96;73.52;99928.69;5046336;28;19933;-86
2023/12/23 05:34:04;;;;;;;;;;;;;;;8.04;72.90;99923.41;5049370;28;20375;-89
2023/12/23 05:36:31;;;;;;;;;;;;;;;8.10;72.52;99910.25;5048935;28;19925;-85
2023/12/23 05:38:59;;;;;;;;;;;;;;;7.89;73.85;99908.75;5047102;28;20027;-85
2023/12/23 05:41:26;;;;;;;;;;;;;;;8.01;73.08;99905.16;5047448;28;19931;-83
2023/12/23 05:43:52;;;;;;;;;;;;;;;8.08;72.59;99895.47;5045039;28;19925;-84
2023/12/23 05:46:19;;;;;;;;;;;;;;;8.06;72.78;99912.91;5041118;28;20010;-83
2023/12/23 05:48:46;;;;;;;;;;;;;;;8.10;72.73;99925.06;5039073;28;19925;-82
2023/12/23 05:51:13;;;;;;;;;;;;;;;8.03;73.13;99910.34;5039305;28;19929;-84
2023/12/23 05:53:39;;;;;;;;;;;;;;;8.11;72.53;99901.53;5041767;28;19936;-82
2023/12/23 05:56:07;;;;;;;;;;;;;;;8.09;72.89;99923.34;5044817;28;19925;-82
2023/12/23 05:58:34;;;;;;;;;;;;;;;8.04;73.01;99919.91;5046314;28;19948;-84
2023/12/23 06:01:01;;;;;;;;;;;;;;;8.08;72.82;99896.34;5044727;28;19929;-84
2023/12/23 06:03:27;;;;;;;;;;;;;;;8.00;73.30;99901.66;5046046;28;19956;-81
2023/12/23 06:05:54;;;;;;;;;;;;;;;8.07;72.96;99901.59;5045099;28;19932;-85
2023/12/23 06:08:22;;;;;;;;;;;;;;;7.97;73.50;99901.69;5043939;28;19955;-84
2023/12/23 06:10:49;;;;;;;;;;;;;;;8.00;73.30;99891.19;5046606;28;19972;-82
2023/12/23 06:13:24;;;;;;;;;;;;;;;8.01;73.08;99903.38;5046084;28;19925;-81
2023/12/23 06:15:50;;;;;;;;;;;;;;;8.00;73.41;99909.50;5048858;28;19925;-82
2023/12/23 06:18:17;;;;;;;;;;;;;;;7.92;73.82;99906.13;5022227;28;19938;-84
2023/12/23 06:20:44;;;;;;;;;;;;;;;7.91;73.94;99904.41;5043217;28;19925;-85
2023/12/23 06:23:11;;;;;;;;;;;;;;;7.93;73.70;99897.38;5043980;28;19931;-82
2023/12/23 06:25:38;;;;;;;;;;;;;;;7.93;73.90;99896.53;5046573;28;19941;-84
2023/12/23 06:28:05;;;;;;;;;;;;;;;7.98;73.33;99906.03;5042431;28;19929;-84
2023/12/23 06:30:31;;;;;;;;;;;;;;;8.08;72.78;99913.75;5045060;28;19925;-86
2023/12/23 06:32:58;;;;;;;;;;;;;;;8.00;73.47;99921.69;5047192;28;19956;-83
2023/12/23 06:35:25;;;;;;;;;;;;;;;8.01;73.46;99899.94;5049676;28;19931;-82
2023/12/23 06:37:52;;;;;;;;;;;;;;;8.00;73.53;99913.88;5048092;28;19943;-84
2023/12/23 06:40:19;;;;;;;;;;;;;;;7.97;73.57;99913.91;5053167;28;19940;-84
2023/12/23 06:42:45;;;;;;;;;;;;;;;7.98;73.57;99916.50;5042517;28;19931;-84
2023/12/23 06:45:12;;;;;;;;;;;;;;;7.96;73.58;99912.16;5042634;28;19931;-83
2023/12/23 06:47:39;;;;;;;;;;;;;;;7.93;73.86;99900.00;5043825;28;19931;-84
2023/12/23 06:50:06;;;;;;;;;;;;;;;8.03;72.72;99895.53;5043661;28;19932;-83
2023/12/23 06:52:34;;;;;;;;;;;;;;;8.06;72.70;99892.88;5047683;28;19959;-83
2023/12/23 06:55:00;;;;;;;;;;;;;;;7.90;73.84;99892.22;5046281;28;19932;-84
2023/12/23 06:57:27;;;;;;;;;;;;;;;7.95;73.17;99882.56;5043096;28;20015;-82
2023/12/23 06:59:56;;;;;;;;;;;;;;;7.97;73.21;99883.41;5041999;28;19925;-85
2023/12/23 07:02:23;;;;;;;;;;;;;;;7.94;73.40;99882.59;5049894;28;19924;-84
2023/12/23 07:04:50;;;;;;;;;;;;;;;7.92;73.26;99869.56;5040504;28;20004;-84
2023/12/23 07:07:17;;;;;;;;;;;;;;;7.98;72.63;99877.31;5043518;28;19929;-84
2023/12/23 07:09:43;;;;;;;;;;;;;;;7.94;73.25;99883.44;5040087;28;19940;-84
2023/12/23 07:12:15;;;;;;;;;;;;;;;8.00;72.84;99883.34;5038722;28;19925;-82
2023/12/23 07:14:42;;;;;;;;;;;;;;;8.02;72.54;99891.19;5049666;28;19924;-83
2023/12/23 07:17:09;;;;;;;;;;;;;;;8.05;72.45;99895.50;5045432;28;20010;-83
2023/12/23 07:19:36;;;;;;;;;;;;;;;8.03;72.51;99884.22;5044727;28;19925;-83
2023/12/23 07:22:04;;;;;;;;;;;;;;;7.98;72.65;99911.28;5043921;28;19948;-83
2023/12/23 07:24:30;;;;;;;;;;;;;;;7.91;73.30;99900.94;5047825;28;19992;-83
2023/12/23 07:26:58;;;;;;;;;;;;;;;7.94;72.83;99924.41;5058889;28;20036;-84
2023/12/23 07:29:25;;;;;;;;;;;;;;;8.01;72.51;99921.69;5045990;28;19963;-83
2023/12/23 07:31:52;;;;;;;;;;;;;;;7.98;72.59;99919.09;5041544;28;20023;-83
2023/12/23 07:34:18;;;;;;;;;;;;;;;8.00;72.26;99925.16;5045157;28;19994;-86
2023/12/23 07:36:45;;;;;;;;;;;;;;;7.98;72.70;99942.63;5042209;28;19940;-84
2023/12/23 07:39:14;;;;;;;;;;;;;;;7.94;72.85;99922.63;5045680;28;19925;-83
2023/12/23 07:41:40;;;;;;;;;;;;;;;7.96;72.73;99918.25;5045245;28;19932;-82
2023/12/23 07:44:07;;;;;;;;;;;;;;;7.88;73.75;99914.88;5039662;28;19932;-84
2023/12/23 07:46:34;;;;;;;;;;;;;;;7.92;72.78;99929.66;5046869;28;19925;-82
2023/12/23 07:49:00;;;;;;;;;;;;;;;7.93;72.99;99944.41;5044850;28;19925;-83
2023/12/23 07:51:27;;;;;;;;;;;;;;;7.86;73.56;99932.31;5033585;28;19925;-83
2023/12/23 07:53:54;;;;;;;;;;;;;;;7.89;73.44;99942.72;5048600;28;19924;-83
2023/12/23 07:56:20;;;;;;;;;;;;;;;7.98;72.63;99929.56;5040906;28;20016;-86
2023/12/23 07:58:47;;;;;;;;;;;;;;;7.95;72.91;99932.22;5048098;28;19953;-85
2023/12/23 08:01:14;;;;;;;;;;;;;;;7.94;73.11;99935.69;5035361;28;19932;-83
2023/12/23 08:03:41;;;;;;;;;;;;;;;7.97;73.03;99945.25;5039639;28;20024;-84
2023/12/23 08:06:07;;;;;;;;;;;;;;;8.03;72.33;99939.94;5035436;28;19925;-84
2023/12/23 08:08:34;;;;;;;;;;;;;;;7.97;72.87;99956.56;5040459;28;19925;-85
2023/12/23 08:11:01;;;;;;;;;;;;;;;8.03;72.84;99944.31;5040595;28;19925;-82
2023/12/23 08:13:28;;;;;;;;;;;;;;;7.95;74.04;99953.13;5046137;28;20027;-82
2023/12/23 08:15:55;;;;;;;;;;;;;;;7.90;74.52;99962.75;5045306;28;19925;-81
2023/12/23 08:18:22;;;;;;;;;;;;;;;7.86;75.19;99968.88;5043238;28;19936;-83
2023/12/23 08:20:48;;;;;;;;;;;;;;;7.83;75.19;99968.94;5046531;28;19929;-84
2023/12/23 08:23:15;;;;;;;;;;;;;;;7.86;75.28;99996.78;5044826;28;19925;-83
2023/12/23 08:25:42;;;;;;;;;;;;;;;7.90;75.14;99996.72;5045714;28;19979;-84
2023/12/23 08:28:08;;;;;;;;;;;;;;;7.68;77.26;100000.47;5044453;28;20035;-81
2023/12/23 08:30:35;;;;;;;;;;;;;;;7.73;76.69;100009.09;5045827;28;19932;-83
2023/12/23 08:33:03;;;;;;;;;;;;;;;7.76;76.58;100009.06;5042497;28;19925;-85
2023/12/23 08:35:31;;;;;;;;;;;;;;;7.71;77.04;100016.09;5047647;28;19970;-85
2023/12/23 08:37:58;;;;;;;;;;;;;;;7.71;76.83;99989.97;5046191;28;20379;-86
2023/12/23 08:40:26;;;;;;;;;;;;;;;7.74;76.55;99995.16;5048510;28;19925;-82
2023/12/23 08:42:52;;;;;;;;;;;;;;;7.71;77.33;100003.03;5043503;28;19932;-82
2023/12/23 08:45:19;;;;;;;;;;;;;;;7.63;77.84;100003.97;5037032;28;19932;-82
2023/12/23 08:47:46;;;;;;;;;;;;;;;7.58;78.44;100000.53;5043898;28;19959;-83
2023/12/23 08:50:13;;;;;;;;;;;;;;;7.62;78.09;99994.41;5044286;28;19925;-82
2023/12/23 08:52:39;;;;;;;;;;;;;;;7.57;78.78;100009.22;5049800;28;19979;-83
2023/12/23 08:55:06;;;;;;;;;;;;;;;7.64;78.04;100000.47;5046867;28;19925;-82
2023/12/23 08:57:33;;;;;;;;;;;;;;;7.60;78.44;100004.00;5047498;28;19925;-83
2023/12/23 09:00:00;;;;;;;;;;;;;;;7.70;77.66;100003.91;5049242;28;19925;-81
2023/12/23 09:02:27;;;;;;;;;;;;;;;7.61;78.46;99994.41;5047548;28;19932;-83
2023/12/23 09:04:54;;;;;;;;;;;;;;;7.62;78.48;100007.47;5048335;28;19925;-84
2023/12/23 09:07:21;;;;;;;;;;;;;;;7.55;79.50;100011.00;5049304;28;19924;-82
2023/12/23 09:09:48;;;;;;;;;;;;;;;7.58;79.15;100021.41;5050253;28;19999;-83
2023/12/23 09:12:14;;;;;;;;;;;;;;;7.60;78.84;100024.91;5041970;28;20506;-83
2023/12/23 09:14:41;;;;;;;;;;;;;;;7.54;79.56;100030.16;5045544;28;19932;-83
2023/12/23 09:17:08;;;;;;;;;;;;;;;7.55;79.46;100036.25;5041740;28;19925;-83
2023/12/23 09:19:35;;;;;;;;;;;;;;;7.57;79.20;100035.34;5040226;28;19939;-87
2023/12/23 09:22:02;;;;;;;;;;;;;;;7.69;78.04;100023.94;5038595;28;19925;-83
2023/12/23 09:24:29;;;;;;;;;;;;;;;7.66;78.33;100024.84;5049194;28;19929;-83
2023/12/23 09:26:56;;;;;;;;;;;;;;;7.67;78.48;100036.13;5041808;28;19924;-83
2023/12/23 09:29:23;;;;;;;;;;;;;;;7.73;77.82;100040.44;5038558;28;19925;-88
2023/12/23 09:31:49;;;;;;;;;;;;;;;7.72;78.01;100041.31;5065177;28;20015;-84
2023/12/23 09:34:16;;;;;;;;;;;;;;;7.75;77.58;100031.72;5040417;28;20020;-83
2023/12/23 09:36:42;;;;;;;;;;;;;;;7.78;77.46;100031.69;5048989;28;19925;-84
2023/12/23 09:39:09;;;;;;;;;;;;;;;7.82;77.22;100043.84;5049413;28;19931;-84
2023/12/23 09:41:36;;;;;;;;;;;;;;;7.92;76.45;100054.19;5049764;28;19925;-84
2023/12/23 09:44:02;;;;;;;;;;;;;;;7.91;76.35;100045.47;5048166;28;19931;-84
2023/12/23 09:46:31;;;;;;;;;;;;;;;7.84;77.18;100060.34;5028643;28;19929;-83
2023/12/23 09:48:57;;;;;;;;;;;;;;;7.90;76.45;100043.75;5056528;28;20020;-84
2023/12/23 09:51:29;;;;;;;;;;;;;;;7.92;76.41;100042.00;5041011;28;19925;-82
2023/12/23 09:53:57;;;;;;;;;;;;;;;7.91;76.72;100045.47;5044817;28;19925;-84
2023/12/23 09:56:26;;;;;;;;;;;;;;;7.87;77.15;100035.94;5028912;28;19925;-84
2023/12/23 09:58:53;;;;;;;;;;;;;;;7.87;77.71;100022.03;5046934;28;19964;-85
2023/12/23 10:01:20;;;;;;;;;;;;;;;7.86;77.67;100036.81;5049054;28;19925;-83
2023/12/23 10:03:47;;;;;;;;;;;;;;;7.80;78.30;100014.22;5049154;28;19932;-83
2023/12/23 10:06:15;;;;;;;;;;;;;;;7.77;78.77;100037.78;5049438;28;19936;-84
2023/12/23 10:08:48;;;;;;;;;;;;;;;7.70;79.36;100032.63;5040251;28;19931;-85
2023/12/23 10:11:15;;;;;;;;;;;;;;;7.68;80.18;100030.03;5042117;28;19925;-82
2023/12/23 10:13:42;;;;;;;;;;;;;;;7.68;79.89;100037.88;5041471;28;19929;-84
2023/12/23 10:16:10;;;;;;;;;;;;;;;7.67;80.24;100033.53;5034238;28;19924;-83
2023/12/23 10:18:40;;;;;;;;;;;;;;;7.66;80.05;100022.22;5047917;28;19932;-86
2023/12/23 10:21:08;;;;;;;;;;;;;;;7.67;80.19;100028.31;5032494;28;19925;-85
2023/12/23 10:23:35;;;;;;;;;;;;;;;7.70;80.17;100024.81;5044598;28;19935;-83
2023/12/23 10:26:02;;;;;;;;;;;;;;;7.74;79.30;100014.31;5017568;28;19925;-84
2023/12/23 10:28:29;;;;;;;;;;;;;;;7.76;79.45;100004.72;5036149;28;19924;-82
2023/12/23 10:31:04;;;;;;;;;;;;;;;7.80;78.80;100005.53;5028879;28;19925;-84
2023/12/23 10:33:31;;;;;;;;;;;;;;;7.74;79.65;100021.28;5046587;28;19924;-85
2023/12/23 10:35:58;;;;;;;;;;;;;;;7.77;79.35;100019.50;5041869;28;20396;-83
2023/12/23 10:38:25;;;;;;;;;;;;;;;7.83;78.21;100010.72;5045714;28;19960;-83
2023/12/23 10:40:58;;;;;;;;;;;;;;;7.83;78.21;100015.94;5043089;28;19929;-85
2023/12/23 10:43:25;;;;;;;;;;;;;;;7.81;78.68;100015.97;5035560;28;19967;-84
2023/12/23 10:45:52;;;;;;;;;;;;;;;7.80;78.96;100029.91;5029468;28;19932;-83
2023/12/23 10:48:19;;;;;;;;;;;;;;;7.72;80.26;100028.25;5035682;28;19959;-85
2023/12/23 10:50:47;;;;;;;;;;;;;;;7.71;79.95;100019.56;5039450;28;19925;-83
2023/12/23 10:53:17;;;;;;;;;;;;;;;7.70;80.26;100022.19;5039946;28;19925;-84
2023/12/23 10:55:44;;;;;;;;;;;;;;;7.69;80.18;100015.22;5047762;28;19952;-82
2023/12/23 10:58:11;;;;;;;;;;;;;;;7.72;79.99;100023.91;5039675;28;19979;-82
2023/12/23 11:00:38;;;;;;;;;;;;;;;7.63;81.34;100019.66;5040398;28;19925;-83
2023/12/23 11:03:04;;;;;;;;;;;;;;;7.71;80.34;100016.09;5035448;28;19988;-83
2023/12/23 11:05:32;;;;;;;;;;;;;;;7.68;80.63;100021.34;5029854;28;19979;-86
2023/12/23 11:08:02;;;;;;;;;;;;;;;7.60;82.11;100018.78;5047328;28;19978;-83
2023/12/23 11:10:39;;;;;;;;;;;;;;;7.62;81.42;100019.66;5047280;28;19964;-82
2023/12/23 11:13:06;;;;;;;;;;;;;;;7.60;81.82;100014.47;5046805;28;19935;-82
2023/12/23 11:15:36;;;;;;;;;;;;;;;7.62;81.30;100033.56;5048723;28;19975;-84
2023/12/23 11:18:03;;;;;;;;;;;;;;;7.58;81.84;100037.09;5033876;28;19926;-85
2023/12/23 11:20:37;;;;;;;;;;;;;;;7.61;81.83;100047.50;5046775;28;19925;-83
2023/12/23 11:23:22;;;;;;;;;;;;;;;7.66;81.54;100056.19;5048356;28;19931;-85
2023/12/23 11:25:49;;;;;;;;;;;;;;;7.73;80.60;100048.28;5046321;28;19925;-83
2023/12/23 11:28:15;;;;;;;;;;;;;;;7.79;80.29;100045.59;5035004;28;19925;-83
2023/12/23 11:30:49;;;;;;;;;;;;;;;7.78;80.11;100059.56;5008728;28;19925;-84
2023/12/23 11:33:19;;;;;;;;;;;;;;;7.82;79.72;100042.94;5030429;28;19948;-83
2023/12/23 11:35:47;;;;;;;;;;;;;;;7.90;79.04;100042.88;5037684;28;19943;-83
2023/12/23 11:38:14;;;;;;;;;;;;;;;7.96;78.22;100043.66;5031518;28;19925;-85
2023/12/23 11:40:40;;;;;;;;;;;;;;;7.89;79.89;100042.00;5044377;28;19936;-83
2023/12/23 11:43:07;;;;;;;;;;;;;;;8.05;78.30;100053.16;5033735;28;19932;-82
2023/12/23 11:45:35;;;;;;;;;;;;;;;8.07;78.13;100055.78;5038025;28;19926;-84
2023/12/23 11:48:02;;;;;;;;;;;;;;;8.06;78.65;100048.81;5030538;28;19925;-83
2023/12/23 11:50:29;;;;;;;;;;;;;;;8.04;79.33;100037.50;5036525;28;19925;-82
2023/12/23 11:52:56;;;;;;;;;;;;;;;8.07;78.63;100046.19;5041176;28;19924;-84
2023/12/23 11:55:23;;;;;;;;;;;;;;;8.07;78.89;100034.88;5051134;28;19952;-83
2023/12/23 11:57:50;;;;;;;;;;;;;;;8.16;77.80;100034.75;5037366;28;19931;-83
2023/12/23 12:00:17;;;;;;;;;;;;;;;8.16;78.14;100034.75;5046934;28;19925;-85
2023/12/23 12:02:44;;;;;;;;;;;;;;;8.16;77.84;100025.16;5050125;28;20168;-84
2023/12/23 12:05:12;;;;;;;;;;;;;;;8.14;78.50;100010.38;5039250;28;19929;-83
2023/12/23 12:07:39;;;;;;;;;;;;;;;8.11;78.91;100013.03;5040733;28;19975;-83
2023/12/23 12:10:06;;;;;;;;;;;;;;;8.16;78.13;100013.84;5041181;28;19928;-83
2023/12/23 12:12:32;;;;;;;;;;;;;;;8.17;78.44;100020.81;5046489;28;19924;-84
2023/12/23 12:14:59;;;;;;;;;;;;;;;8.27;76.83;100017.19;5053728;28;19951;-84
2023/12/23 12:17:26;;;;;;;;;;;;;;;8.36;76.47;100016.22;5044159;28;19931;-82
2023/12/23 12:19:53;;;;;;;;;;;;;;;8.42;76.94;100023.13;5032696;28;19929;-84
2023/12/23 12:22:21;;;;;;;;;;;;;;;8.45;75.72;99996.97;5035327;28;19972;-84
2023/12/23 12:24:48;;;;;;;;;;;;;;;8.55;76.03;100029.09;5014894;28;19925;-83
2023/12/23 12:27:14;;;;;;;;;;;;;;;8.55;76.34;100027.34;5025631;28;19984;-87
2023/12/23 12:29:41;;;;;;;;;;;;;;;8.54;76.25;100020.38;5043591;28;19935;-83
2023/12/23 12:32:14;;;;;;;;;;;;;;;8.59;75.89;100022.91;5051930;28;20356;-83
2023/12/23 12:34:41;;;;;;;;;;;;;;;8.59;75.41;100008.09;5050494;28;19925;-86
2023/12/23 12:37:11;;;;;;;;;;;;;;;8.59;75.54;100018.56;5044901;28;19932;-85
2023/12/23 12:39:37;;;;;;;;;;;;;;;8.61;75.66;100021.16;5040176;28;19925;-86
2023/12/23 12:42:04;;;;;;;;;;;;;;;8.66;74.71;100006.25;5049914;28;19999;-83
2023/12/23 12:44:31;;;;;;;;;;;;;;;8.64;75.31;100005.41;5050997;28;19951;-85
2023/12/23 12:46:58;;;;;;;;;;;;;;;8.59;74.62;100008.09;5050756;28;20046;-82
2023/12/23 12:49:25;;;;;;;;;;;;;;;8.59;73.86;100008.09;5049698;28;19931;-87
2023/12/23 12:51:52;;;;;;;;;;;;;;;8.58;73.58;100006.38;5050249;28;19928;-83